Saegertown, Pennsylvania
Current Conditions -  °F | °C
As of 3:53 PM on Tuesday 27 Jan 2015 (Local Time) from KGKJ Reporting Station
Light Snow Light Snow  
Wind Chill:   Ceiling: 1700
Heat Index: 17°   Visibility: 0.75mi
Dew Point: 11°   Wind: 8mph
Humidity: 77%   Direction: 340°NNW
Pressure: 29.99"   Gusts: NA
Location:  41.72°N, 80.15°W
Report Text: KGKJ 272053Z AUTO 34007KT 3/4SM -SN BKN017 OVC022 M08/M12 A2999 RMK AO2 SLP178 P0000 60000 T10831117 53017 TSNO
Loading
Personal Weather Stations






























Interactive Weather Map New forecast layout! Learn more

10-Day Weather Forecast

Advertisements
Track Severe Weather on mobile